• Join FlightAware (Why Join?)
  • Login
  • US Flag 
11:55AM EST


 

Airport Tracker/Info


-or-


 

Live Flight TrackerFlight Track Log ✈ SKW5517 ✈ 28-Apr-2013 ✈ KDEN - KPSP

Flight Track Log - Related Links

Times and Time Zones

All times are in EDT time to prevent confusion due to time zone crossing. See the SKW5517 flight status page for this flight to view local times or setup timezone preferences in your user account.

Time Position Orientation Groundspeed Altitude Reporting Facility
EDT Latitude Longitude Course Direction KTS MPH feet Rate Location/Type
09:41PM 39.6971 -105.0602 241° Southwest  Level Estimated
09:42PM 39.6419 -105.1889 241° Southwest  Level Estimated
09:43PM 39.5866 -105.3173 241° Southwest  Level Estimated
09:44PM 39.5312 -105.4455 241° Southwest  Level Estimated
09:45PM 39.4756 -105.5735 241° Southwest  Level Estimated
09:46PM 39.4199 -105.7013 241° Southwest  Level Estimated
09:47PM 39.3641 -105.8289 241° Southwest  Level Estimated
09:48PM 39.3081 -105.9563 240° Southwest  Level Estimated
09:49PM 39.2520 -106.0835 240° Southwest  Level Estimated
09:50PM 39.1957 -106.2104 240° Southwest  Level Estimated
09:51PM 39.1393 -106.3372 240° Southwest  Level Estimated
09:52PM 39.0827 -106.4638 240° Southwest  Level Estimated
09:53PM 39.0261 -106.5902 240° Southwest  Level Estimated
09:54PM 38.9693 -106.7163 240° Southwest  Level Estimated
09:55PM 38.9123 -106.8423 240° Southwest  Level Estimated
09:56PM 38.8552 -106.9681 240° Southwest  Level Estimated
09:57PM 38.7980 -107.0936 240° Southwest  Level Estimated
09:58PM 38.7407 -107.2190 240° Southwest  Level Estimated
09:59PM 38.6832 -107.3441 240° Southwest  Level Estimated
10:00PM 38.6255 -107.4691 239° Southwest  Level Estimated
10:01PM 38.5678 -107.5939 239° Southwest  Level Estimated
10:02PM 38.5099 -107.7184 239° Southwest  Level Estimated
10:03PM 38.4519 -107.8428 239° Southwest  Level Estimated
10:04PM 38.3937 -107.9669 239° Southwest  Level Estimated
10:05PM 38.3355 -108.0909 239° Southwest  Level Estimated
10:06PM 38.2771 -108.2147 239° Southwest  Level Estimated
10:07PM 38.2185 -108.3382 239° Southwest  Level Estimated
10:08PM 38.1599 -108.4616 239° Southwest  Level Estimated
10:09PM 38.1011 -108.5847 239° Southwest  Level Estimated
10:10PM 38.0421 -108.7077 239° Southwest  Level Estimated
10:11PM 37.9831 -108.8305 239° Southwest  Level Estimated
10:12PM 37.9239 -108.9530 239° Southwest  Level Estimated
10:13PM 37.8646 -109.0754 238° Southwest  Level Estimated
10:14PM 37.8052 -109.1976 238° Southwest  Level Estimated
10:15PM 37.7456 -109.3195 238° Southwest  Level Estimated
10:16PM 37.6859 -109.4413 238° Southwest  Level Estimated
10:17PM 37.6261 -109.5629 238° Southwest  Level Estimated
10:18PM 37.5662 -109.6843 238° Southwest  Level Estimated
10:19PM 37.5061 -109.8055 238° Southwest  Level Estimated
10:20PM 37.4459 -109.9265 238° Southwest  Level Estimated
10:21PM 37.3856 -110.0473 238° Southwest  Level Estimated
10:22PM 37.3252 -110.1679 238° Southwest  Level Estimated
10:23PM 37.2646 -110.2883 238° Southwest  Level Estimated
10:24PM 37.2040 -110.4085 238° Southwest  Level Estimated
10:25PM 37.1432 -110.5286 238° Southwest  Level Estimated
10:26PM 37.0823 -110.6484 238° Southwest  Level Estimated
10:27PM 37.0212 -110.7680 237° Southwest  Level Estimated
10:28PM 36.9601 -110.8875 237° Southwest  Level Estimated
10:29PM 36.8988 -111.0067 237° Southwest  Level Estimated
10:30PM 36.8374 -111.1258 237° Southwest  Level Estimated
10:31PM 36.7759 -111.2447 237° Southwest  Level Estimated
10:32PM 36.7143 -111.3634 237° Southwest  Level Estimated
10:33PM 36.6525 -111.4818 237° Southwest  Level Estimated
10:34PM 36.5907 -111.6002 237° Southwest  Level Estimated
10:35PM 36.5287 -111.7183 237° Southwest  Level Estimated
10:36PM 36.4666 -111.8362 237° Southwest  Level Estimated
10:37PM 36.4044 -111.9539 237° Southwest  Level Estimated
10:38PM 36.3421 -112.0715 237° Southwest  Level Estimated
10:39PM 36.2796 -112.1888 237° Southwest  Level Estimated
10:40PM 36.2171 -112.3060 237° Southwest  Level Estimated
10:41PM 36.1544 -112.4230 236° Southwest  Level Estimated
10:42PM 36.0916 -112.5398 236° Southwest  Level Estimated
10:43PM 36.0287 -112.6564 236° Southwest  Level Estimated
10:44PM 35.9657 -112.7728 236° Southwest  Level Estimated
10:45PM 35.9026 -112.8890 236° Southwest  Level Estimated
10:46PM 35.8393 -113.0051 236° Southwest  Level Estimated
10:47PM 35.7760 -113.1210 236° Southwest  Level Estimated
10:48PM 35.7125 -113.2366 236° Southwest  Level Estimated
10:49PM 35.6489 -113.3521 236° Southwest  Level Estimated
10:50PM 35.5853 -113.4675 236° Southwest  Level Estimated
10:51PM 35.5215 -113.5826 236° Southwest  Level Estimated
10:52PM 35.4576 -113.6975 236° Southwest  Level Estimated
10:53PM 35.3936 -113.8123 236° Southwest  Level Estimated
10:54PM 35.3295 -113.9269 236° Southwest  Level Estimated
10:55PM 35.2652 -114.0413 236° Southwest  Level Estimated
10:56PM 35.2009 -114.1555 235° Southwest  Level Estimated
10:57PM 35.1365 -114.2695 235° Southwest  Level Estimated
10:58PM 35.0719 -114.3834 235° Southwest  Level Estimated
10:59PM 35.0073 -114.4971 235° Southwest  Level Estimated
11:00PM 34.9425 -114.6106 235° Southwest  Level Estimated
11:01PM 34.8777 -114.7239 235° Southwest  Level Estimated
11:02PM 34.8127 -114.8370 235° Southwest  Level Estimated
11:03PM 34.7476 -114.9500 235° Southwest  Level Estimated
11:04PM 34.6824 -115.0628 235° Southwest  Level Estimated
11:05PM 34.6172 -115.1754 235° Southwest  Level Estimated
11:06PM 34.5518 -115.2878 235° Southwest  Level Estimated
11:07PM 34.4863 -115.4001 235° Southwest  Level Estimated
11:08PM 34.4207 -115.5122 235° Southwest  Level Estimated
11:09PM 34.3550 -115.6240 235° Southwest  Level Estimated
11:10PM 34.2892 -115.7358 235° Southwest  Level Estimated
11:11PM 34.2233 -115.8473 234° Southwest  Level Estimated
11:12PM 34.1573 -115.9587 234° Southwest  Level Estimated
11:13PM 34.0913 -116.0699 234° Southwest  Level Estimated
11:14PM 34.0251 -116.1809 234° Southwest  Level Estimated
11:15PM 33.9588 -116.2918 234° Southwest  Level Estimated
11:16PM 33.8924 -116.4025 234° Southwest  Level Estimated
11:17PM 33.8297 -116.5067 234° Southwest  Level Estimated
11:18PM 33.8297 -116.5067 228° Southwest  Level Estimated
11:19PM 33.8297 -116.5067 228° Southwest  Level Estimated
11:20PM 33.8297 -116.5067 228° Southwest  Level Estimated
11:21PM 33.8297 -116.5067 228° Southwest  Level Estimated
11:22PM 33.8297 -116.5067 228° Southwest  Level Estimated